sensor_id;sensor_type;location;lat;lon;timestamp;pressure;altitude;pressure_sealevel;temperature;humidity
48035;BME280;33812;46.480;6.834;2023-12-20T00:00:36;93977.16;;;21.66;39.86
48035;BME280;33812;46.480;6.834;2023-12-20T00:04:40;93984.22;;;21.67;39.93
48035;BME280;33812;46.480;6.834;2023-12-20T00:08:42;93964.88;;;21.67;39.80
48035;BME280;33812;46.480;6.834;2023-12-20T00:12:44;93965.97;;;21.70;39.62
48035;BME280;33812;46.480;6.834;2023-12-20T00:16:46;93966.09;;;21.66;39.75
48035;BME280;33812;46.480;6.834;2023-12-20T00:20:49;93971.63;;;21.66;39.70
48035;BME280;33812;46.480;6.834;2023-12-20T00:24:52;93978.34;;;21.65;39.67
48035;BME280;33812;46.480;6.834;2023-12-20T00:28:53;93982.69;;;21.66;39.58
48035;BME280;33812;46.480;6.834;2023-12-20T00:32:55;93968.84;;;21.66;39.40
48035;BME280;33812;46.480;6.834;2023-12-20T00:36:58;93970.50;;;21.64;39.43
48035;BME280;33812;46.480;6.834;2023-12-20T00:41:01;93974.03;;;21.64;39.51
48035;BME280;33812;46.480;6.834;2023-12-20T00:45:05;93973.25;;;21.64;39.51
48035;BME280;33812;46.480;6.834;2023-12-20T00:49:06;93987.44;;;21.66;39.36
48035;BME280;33812;46.480;6.834;2023-12-20T00:53:10;93982.34;;;21.64;39.28
48035;BME280;33812;46.480;6.834;2023-12-20T00:57:11;93998.59;;;21.62;39.38
48035;BME280;33812;46.480;6.834;2023-12-20T01:01:13;93996.91;;;21.65;39.22
48035;BME280;33812;46.480;6.834;2023-12-20T01:05:15;94007.22;;;21.64;39.23
48035;BME280;33812;46.480;6.834;2023-12-20T01:09:18;94009.56;;;21.66;39.16
48035;BME280;33812;46.480;6.834;2023-12-20T01:13:20;94017.41;;;21.67;39.16
48035;BME280;33812;46.480;6.834;2023-12-20T01:17:21;94014.41;;;21.61;38.88
48035;BME280;33812;46.480;6.834;2023-12-20T01:21:24;94009.22;;;21.64;38.76
48035;BME280;33812;46.480;6.834;2023-12-20T01:25:27;93996.91;;;21.65;38.88
48035;BME280;33812;46.480;6.834;2023-12-20T01:29:29;93996.91;;;21.65;39.17
48035;BME280;33812;46.480;6.834;2023-12-20T01:33:31;93993.31;;;21.68;38.74
48035;BME280;33812;46.480;6.834;2023-12-20T01:37:32;93980.69;;;21.67;38.85
48035;BME280;33812;46.480;6.834;2023-12-20T01:41:37;93985.09;;;21.64;39.00
48035;BME280;33812;46.480;6.834;2023-12-20T01:45:38;93978.34;;;21.65;38.91
48035;BME280;33812;46.480;6.834;2023-12-20T01:49:40;93976.81;;;21.64;38.86
48035;BME280;33812;46.480;6.834;2023-12-20T01:53:42;93974.69;;;21.68;38.64
48035;BME280;33812;46.480;6.834;2023-12-20T01:57:46;93978.69;;;21.67;38.42
48035;BME280;33812;46.480;6.834;2023-12-20T02:01:48;93977.03;;;21.70;38.61
48035;BME280;33812;46.480;6.834;2023-12-20T02:05:50;93981.13;;;21.65;38.51
48035;BME280;33812;46.480;6.834;2023-12-20T02:09:52;93994.41;;;21.70;38.48
48035;BME280;33812;46.480;6.834;2023-12-20T02:13:57;94000.81;;;21.67;38.33
48035;BME280;33812;46.480;6.834;2023-12-20T02:17:59;94007.22;;;21.64;38.42
48035;BME280;33812;46.480;6.834;2023-12-20T02:22:11;93999.38;;;21.62;38.36
48035;BME280;33812;46.480;6.834;2023-12-20T02:26:13;94002.56;;;21.61;38.27
48035;BME280;33812;46.480;6.834;2023-12-20T02:30:15;93996.50;;;21.66;38.12
48035;BME280;33812;46.480;6.834;2023-12-20T02:34:17;93985.19;;;21.60;38.29
48035;BME280;33812;46.480;6.834;2023-12-20T02:38:20;93974.91;;;21.61;38.36
48035;BME280;33812;46.480;6.834;2023-12-20T02:42:22;93984.75;;;21.62;38.35
48035;BME280;33812;46.480;6.834;2023-12-20T02:46:23;93987.19;;;21.60;38.47
48035;BME280;33812;46.480;6.834;2023-12-20T02:50:25;93986.31;;;21.63;38.44
48035;BME280;33812;46.480;6.834;2023-12-20T02:54:28;93979.66;;;21.60;38.23
48035;BME280;33812;46.480;6.834;2023-12-20T02:58:31;93969.38;;;21.61;38.41
48035;BME280;33812;46.480;6.834;2023-12-20T03:02:33;93964.63;;;21.61;38.48
48035;BME280;33812;46.480;6.834;2023-12-20T03:06:35;93963.84;;;21.61;38.37
48035;BME280;33812;46.480;6.834;2023-12-20T03:10:38;93965.41;;;21.62;38.16
48035;BME280;33812;46.480;6.834;2023-12-20T03:14:39;93958.19;;;21.65;38.26
48035;BME280;33812;46.480;6.834;2023-12-20T03:18:42;93961.41;;;21.63;38.49
48035;BME280;33812;46.480;6.834;2023-12-20T03:22:44;93954.34;;;21.62;38.59
48035;BME280;33812;46.480;6.834;2023-12-20T03:26:47;93970.94;;;21.62;38.46
48035;BME280;33812;46.480;6.834;2023-12-20T03:30:49;93965.75;;;21.64;38.41
48035;BME280;33812;46.480;6.834;2023-12-20T03:34:50;93960.66;;;21.62;38.23
48035;BME280;33812;46.480;6.834;2023-12-20T03:38:52;93961.41;;;21.63;38.34
48035;BME280;33812;46.480;6.834;2023-12-20T03:42:56;93960.66;;;21.62;38.45
48035;BME280;33812;46.480;6.834;2023-12-20T03:46:57;93956.66;;;21.64;38.26
48035;BME280;33812;46.480;6.834;2023-12-20T03:50:59;93962.19;;;21.64;38.20
48035;BME280;33812;46.480;6.834;2023-12-20T03:55:02;93954.34;;;21.62;38.34
48035;BME280;33812;46.480;6.834;2023-12-20T03:59:05;93956.31;;;21.61;38.28
48035;BME280;33812;46.480;6.834;2023-12-20T04:03:07;93957.44;;;21.64;38.24
48035;BME280;33812;46.480;6.834;2023-12-20T04:07:09;93953.22;;;21.59;38.05
48035;BME280;33812;46.480;6.834;2023-12-20T04:11:11;93964.53;;;21.65;38.21
48035;BME280;33812;46.480;6.834;2023-12-20T04:15:15;93963.84;;;21.61;38.30
48035;BME280;33812;46.480;6.834;2023-12-20T04:19:16;93965.06;;;21.60;38.05
48035;BME280;33812;46.480;6.834;2023-12-20T04:23:18;93959.88;;;21.62;38.12
48035;BME280;33812;46.480;6.834;2023-12-20T04:27:20;93967.38;;;21.61;38.13
48035;BME280;33812;46.480;6.834;2023-12-20T04:31:24;93972.91;;;21.61;38.27
48035;BME280;33812;46.480;6.834;2023-12-20T04:35:25;93964.63;;;21.61;38.01
48035;BME280;33812;46.480;6.834;2023-12-20T04:39:28;93966.94;;;21.63;38.13
48035;BME280;33812;46.480;6.834;2023-12-20T04:43:30;93970.16;;;21.61;37.90
48035;BME280;33812;46.480;6.834;2023-12-20T04:47:33;93972.91;;;21.61;38.17
48035;BME280;33812;46.480;6.834;2023-12-20T04:51:35;93976.47;;;21.62;38.05
48035;BME280;33812;46.480;6.834;2023-12-20T04:55:40;93978.78;;;21.64;38.11
48035;BME280;33812;46.480;6.834;2023-12-20T04:59:41;93983.72;;;21.56;38.19
48035;BME280;33812;46.480;6.834;2023-12-20T05:03:44;93978.97;;;21.56;38.10
48035;BME280;33812;46.480;6.834;2023-12-20T05:07:46;93987.72;;;21.55;38.11
48035;BME280;33812;46.480;6.834;2023-12-20T05:11:48;93981.84;;;21.53;38.11
48035;BME280;33812;46.480;6.834;2023-12-20T05:15:51;93989.38;;;21.52;38.25
48035;BME280;33812;46.480;6.834;2023-12-20T05:19:54;93992.47;;;21.54;37.95
48035;BME280;33812;46.480;6.834;2023-12-20T05:23:56;93987.88;;;21.47;38.31
48035;BME280;33812;46.480;6.834;2023-12-20T05:27:58;93993.41;;;21.47;38.17
48035;BME280;33812;46.480;6.834;2023-12-20T05:32:00;93993.41;;;21.47;38.17
48035;BME280;33812;46.480;6.834;2023-12-20T05:36:04;93995.44;;;21.47;38.09
48035;BME280;33812;46.480;6.834;2023-12-20T05:40:06;93990.31;;;21.45;38.26
48035;BME280;33812;46.480;6.834;2023-12-20T05:44:10;93989.56;;;21.45;38.23
48035;BME280;33812;46.480;6.834;2023-12-20T05:48:12;94007.59;;;21.49;38.06
48035;BME280;33812;46.480;6.834;2023-12-20T05:52:15;94019.00;;;21.52;38.05
48035;BME280;33812;46.480;6.834;2023-12-20T05:56:20;94032.03;;;21.51;38.05
48035;BME280;33812;46.480;6.834;2023-12-20T06:00:22;94038.72;;;21.54;38.06
48035;BME280;33812;46.480;6.834;2023-12-20T06:04:25;94029.19;;;21.55;37.93
48035;BME280;33812;46.480;6.834;2023-12-20T06:08:30;94027.13;;;21.59;37.80
48035;BME280;33812;46.480;6.834;2023-12-20T06:12:34;94026.44;;;21.55;38.33
48035;BME280;33812;46.480;6.834;2023-12-20T06:16:37;94027.22;;;21.55;38.89
48035;BME280;33812;46.480;6.834;2023-12-20T06:20:38;94023.91;;;21.60;39.12
48035;BME280;33812;46.480;6.834;2023-12-20T06:24:42;94021.59;;;21.59;39.43
48035;BME280;33812;46.480;6.834;2023-12-20T06:28:43;94020.03;;;21.58;39.48
48035;BME280;33812;46.480;6.834;2023-12-20T06:32:46;94027.22;;;21.55;39.67
48035;BME280;33812;46.480;6.834;2023-12-20T06:36:49;94025.06;;;21.46;39.53
48035;BME280;33812;46.480;6.834;2023-12-20T06:40:53;94029.38;;;21.47;39.62
48035;BME280;33812;46.480;6.834;2023-12-20T06:44:57;94034.47;;;21.49;39.47
48035;BME280;33812;46.480;6.834;2023-12-20T06:48:59;94032.03;;;21.51;39.37
48035;BME280;33812;46.480;6.834;2023-12-20T06:53:03;94028.16;;;21.48;41.10
48035;BME280;33812;46.480;6.834;2023-12-20T06:57:09;94043.28;;;21.60;40.63
48035;BME280;33812;46.480;6.834;2023-12-20T07:01:24;94045.00;;;21.54;40.81
48035;BME280;33812;46.480;6.834;2023-12-20T07:05:36;94041.47;;;21.54;41.10
48035;BME280;33812;46.480;6.834;2023-12-20T07:09:38;94051.56;;;21.60;41.07
48035;BME280;33812;46.480;6.834;2023-12-20T07:13:42;94049.69;;;21.57;41.49
48035;BME280;33812;46.480;6.834;2023-12-20T07:17:44;94050.06;;;22.19;37.45
48035;BME280;33812;46.480;6.834;2023-12-20T07:21:46;94055.63;;;22.32;37.04
48035;BME280;33812;46.480;6.834;2023-12-20T07:25:48;94058.22;;;22.39;36.44
48035;BME280;33812;46.480;6.834;2023-12-20T07:29:52;94060.09;;;22.42;34.98
48035;BME280;33812;46.480;6.834;2023-12-20T07:34:01;94061.66;;;21.67;37.67
48035;BME280;33812;46.480;6.834;2023-12-20T07:38:03;94065.97;;;21.68;37.86
48035;BME280;33812;46.480;6.834;2023-12-20T07:42:07;94071.50;;;21.68;38.27
48035;BME280;33812;46.480;6.834;2023-12-20T07:46:10;94070.31;;;21.69;38.42
48035;BME280;33812;46.480;6.834;2023-12-20T07:50:12;94070.84;;;21.64;38.71
48035;BME280;33812;46.480;6.834;2023-12-20T07:54:14;94082.06;;;21.73;38.67
48035;BME280;33812;46.480;6.834;2023-12-20T07:58:21;94088.13;;;21.68;38.78
48035;BME280;33812;46.480;6.834;2023-12-20T08:02:25;94091.56;;;21.72;38.93
48035;BME280;33812;46.480;6.834;2023-12-20T08:06:35;94100.91;;;21.79;38.82
48035;BME280;33812;46.480;6.834;2023-12-20T08:10:37;94092.09;;;21.84;38.85
48035;BME280;33812;46.480;6.834;2023-12-20T08:14:38;94098.94;;;21.79;38.99
48035;BME280;33812;46.480;6.834;2023-12-20T08:18:44;94099.72;;;21.80;38.99
48035;BME280;33812;46.480;6.834;2023-12-20T08:22:46;94102.84;;;21.82;38.98
48035;BME280;33812;46.480;6.834;2023-12-20T08:26:49;94107.06;;;21.86;39.17
48035;BME280;33812;46.480;6.834;2023-12-20T08:30:52;94101.00;;;21.92;39.70
48035;BME280;33812;46.480;6.834;2023-12-20T08:35:02;94108.69;;;22.01;39.58
48035;BME280;33812;46.480;6.834;2023-12-20T08:39:06;94114.75;;;21.95;39.43
48035;BME280;33812;46.480;6.834;2023-12-20T08:43:08;94130.81;;;22.01;39.92
48035;BME280;33812;46.480;6.834;2023-12-20T08:47:10;94106.34;;;21.99;39.55
48035;BME280;33812;46.480;6.834;2023-12-20T08:51:18;94125.28;;;22.01;39.98
48035;BME280;33812;46.480;6.834;2023-12-20T08:55:23;94123.31;;;22.01;39.44
48035;BME280;33812;46.480;6.834;2023-12-20T08:59:27;94120.63;;;21.97;39.47
48035;BME280;33812;46.480;6.834;2023-12-20T09:03:30;94122.25;;;21.95;39.58
48035;BME280;33812;46.480;6.834;2023-12-20T09:07:33;94125.38;;;21.97;39.58
48035;BME280;33812;46.480;6.834;2023-12-20T09:11:36;94125.81;;;21.95;39.40
48035;BME280;33812;46.480;6.834;2023-12-20T09:15:38;94130.03;;;22.00;39.32
48035;BME280;33812;46.480;6.834;2023-12-20T09:19:39;94134.47;;;21.97;39.62
48035;BME280;33812;46.480;6.834;2023-12-20T09:23:44;94132.91;;;21.96;39.79
48035;BME280;33812;46.480;6.834;2023-12-20T09:27:45;94123.72;;;22.00;39.77
48035;BME280;33812;46.480;6.834;2023-12-20T09:31:47;94118.19;;;22.00;39.69
48035;BME280;33812;46.480;6.834;2023-12-20T09:35:50;94119.75;;;22.01;39.64
48035;BME280;33812;46.480;6.834;2023-12-20T09:39:53;94119.22;;;22.06;39.77
48035;BME280;33812;46.480;6.834;2023-12-20T09:43:56;94130.28;;;22.06;39.86
48035;BME280;33812;46.480;6.834;2023-12-20T09:48:04;94120.66;;;22.10;39.68
48035;BME280;33812;46.480;6.834;2023-12-20T09:52:07;94110.47;;;22.07;39.69
48035;BME280;33812;46.480;6.834;2023-12-20T10:05:33;94113.59;;;22.09;39.98
48035;BME280;33812;46.480;6.834;2023-12-20T10:10:00;94116.72;;;22.12;39.79
48035;BME280;33812;46.480;6.834;2023-12-20T10:14:16;94112.63;;;22.16;39.76
48035;BME280;33812;46.480;6.834;2023-12-20T10:18:20;94109.41;;;22.18;39.86
48035;BME280;33812;46.480;6.834;2023-12-20T10:22:26;94104.03;;;22.27;36.20
48035;BME280;33812;46.480;6.834;2023-12-20T10:26:32;94095.13;;;22.19;39.12
48035;BME280;33812;46.480;6.834;2023-12-20T10:30:34;94094.16;;;22.26;39.41
48035;BME280;33812;46.480;6.834;2023-12-20T10:34:38;94085.41;;;22.28;39.77
48035;BME280;33812;46.480;6.834;2023-12-20T10:38:44;94071.91;;;22.30;40.46
48035;BME280;33812;46.480;6.834;2023-12-20T10:42:48;94079.78;;;22.31;40.19
48035;BME280;33812;46.480;6.834;2023-12-20T10:46:52;94089.22;;;22.34;40.56
48035;BME280;33812;46.480;6.834;2023-12-20T10:51:04;94078.56;;;22.32;41.58
48035;BME280;33812;46.480;6.834;2023-12-20T10:55:38;94071.81;;;22.33;41.39
48035;BME280;33812;46.480;6.834;2023-12-20T11:00:00;94066.19;;;22.37;41.31
48035;BME280;33812;46.480;6.834;2023-12-20T11:04:09;94063.06;;;22.35;41.54
48035;BME280;33812;46.480;6.834;2023-12-20T11:08:32;94052.88;;;22.32;41.76
48035;BME280;33812;46.480;6.834;2023-12-20T11:12:43;94050.88;;;22.32;41.73
48035;BME280;33812;46.480;6.834;2023-12-20T11:21:46;94038.69;;;22.30;41.38
48035;BME280;33812;46.480;6.834;2023-12-20T11:25:59;94044.91;;;22.34;41.66
48035;BME280;33812;46.480;6.834;2023-12-20T11:35:20;94040.56;;;22.33;41.75
48035;BME280;33812;46.480;6.834;2023-12-20T11:42:33;94041.81;;;22.32;41.77
48035;BME280;33812;46.480;6.834;2023-12-20T11:45:05;94030.72;;;22.32;41.89
48035;BME280;33812;46.480;6.834;2023-12-20T11:49:14;94036.69;;;22.30;42.16
48035;BME280;33812;46.480;6.834;2023-12-20T11:53:17;94032.25;;;22.33;42.50
48035;BME280;33812;46.480;6.834;2023-12-20T11:57:20;94027.94;;;22.32;43.06
48035;BME280;33812;46.480;6.834;2023-12-20T12:01:24;94027.41;;;22.37;42.58
48035;BME280;33812;46.480;6.834;2023-12-20T12:05:26;94018.75;;;22.35;42.57
48035;BME280;33812;46.480;6.834;2023-12-20T12:09:29;94025.09;;;22.36;42.26
48035;BME280;33812;46.480;6.834;2023-12-20T12:13:40;94019.09;;;22.37;42.03
48035;BME280;33812;46.480;6.834;2023-12-20T12:17:53;94015.09;;;22.38;42.13
48035;BME280;33812;46.480;6.834;2023-12-20T12:22:05;94022.22;;;22.39;42.20
48035;BME280;33812;46.480;6.834;2023-12-20T12:26:34;94010.91;;;22.33;41.84
48035;BME280;33812;46.480;6.834;2023-12-20T12:30:37;94008.38;;;22.39;41.92
48035;BME280;33812;46.480;6.834;2023-12-20T12:34:41;94008.38;;;22.39;42.04
48035;BME280;33812;46.480;6.834;2023-12-20T12:38:43;94009.56;;;22.38;41.78
48035;BME280;33812;46.480;6.834;2023-12-20T12:42:47;94004.38;;;22.40;41.91
48035;BME280;33812;46.480;6.834;2023-12-20T12:46:51;94013.03;;;22.42;41.71
48035;BME280;33812;46.480;6.834;2023-12-20T12:50:54;94023.00;;;22.40;41.84
48035;BME280;33812;46.480;6.834;2023-12-20T12:54:59;94017.56;;;22.36;41.84
48035;BME280;33812;46.480;6.834;2023-12-20T12:59:03;94021.97;;;22.33;41.55
48035;BME280;33812;46.480;6.834;2023-12-20T13:03:06;94032.25;;;22.33;41.71
48035;BME280;33812;46.480;6.834;2023-12-20T13:07:07;94025.19;;;22.32;41.50
48035;BME280;33812;46.480;6.834;2023-12-20T13:11:11;94031.59;;;22.29;41.78
48035;BME280;33812;46.480;6.834;2023-12-20T13:15:14;94028.94;;;22.25;41.70
48035;BME280;33812;46.480;6.834;2023-12-20T13:19:16;94036.81;;;22.27;41.73
48035;BME280;33812;46.480;6.834;2023-12-20T13:23:18;94045.22;;;22.23;41.54
48035;BME280;33812;46.480;6.834;2023-12-20T13:27:19;94043.66;;;22.22;41.63
48035;BME280;33812;46.480;6.834;2023-12-20T13:31:23;94051.97;;;22.22;41.46
48035;BME280;33812;46.480;6.834;2023-12-20T13:35:24;94049.31;;;22.18;41.64
48035;BME280;33812;46.480;6.834;2023-12-20T13:39:26;94053.59;;;22.19;41.38
48035;BME280;33812;46.480;6.834;2023-12-20T13:43:28;94051.28;;;22.18;41.28
48035;BME280;33812;46.480;6.834;2023-12-20T13:47:31;94054.84;;;22.18;41.46
48035;BME280;33812;46.480;6.834;2023-12-20T13:51:33;94069.44;;;22.19;41.08
48035;BME280;33812;46.480;6.834;2023-12-20T13:55:34;94074.66;;;22.17;41.00
48035;BME280;33812;46.480;6.834;2023-12-20T13:59:36;94080.19;;;22.17;41.20
48035;BME280;33812;46.480;6.834;2023-12-20T14:03:39;94072.31;;;22.15;41.26
48035;BME280;33812;46.480;6.834;2023-12-20T14:07:41;94079.50;;;22.13;40.99
48035;BME280;33812;46.480;6.834;2023-12-20T14:11:44;94078.41;;;22.10;40.86
48035;BME280;33812;46.480;6.834;2023-12-20T14:15:46;94091.34;;;22.13;40.71
48035;BME280;33812;46.480;6.834;2023-12-20T14:19:52;94093.00;;;22.10;40.88
48035;BME280;33812;46.480;6.834;2023-12-20T14:23:55;94095.00;;;22.10;40.78
48035;BME280;33812;46.480;6.834;2023-12-20T14:27:56;94090.31;;;22.07;40.93
48035;BME280;33812;46.480;6.834;2023-12-20T14:31:58;94087.91;;;22.09;40.77
48035;BME280;33812;46.480;6.834;2023-12-20T14:36:03;94084.03;;;22.06;41.17
48035;BME280;33812;46.480;6.834;2023-12-20T14:40:06;94094.66;;;22.08;41.00
48035;BME280;33812;46.480;6.834;2023-12-20T14:44:11;94103.72;;;22.08;41.09
48035;BME280;33812;46.480;6.834;2023-12-20T14:48:13;94102.63;;;22.06;41.01
48035;BME280;33812;46.480;6.834;2023-12-20T14:52:17;94096.47;;;21.98;40.72
48035;BME280;33812;46.480;6.834;2023-12-20T14:56:19;94105.91;;;22.01;40.83
48035;BME280;33812;46.480;6.834;2023-12-20T15:00:21;94104.69;;;22.02;40.72
48035;BME280;33812;46.480;6.834;2023-12-20T15:04:22;94110.22;;;22.02;40.45
48035;BME280;33812;46.480;6.834;2023-12-20T15:08:30;94110.66;;;22.00;40.39
48035;BME280;33812;46.480;6.834;2023-12-20T15:12:32;94109.88;;;22.00;40.33
48035;BME280;33812;46.480;6.834;2023-12-20T15:16:35;94120.94;;;22.00;40.32
48035;BME280;33812;46.480;6.834;2023-12-20T15:20:37;94128.94;;;21.97;40.22
48035;BME280;33812;46.480;6.834;2023-12-20T15:24:40;94128.94;;;21.97;40.12
48035;BME280;33812;46.480;6.834;2023-12-20T15:28:44;94132.53;;;21.94;39.91
48035;BME280;33812;46.480;6.834;2023-12-20T15:32:45;94128.59;;;21.95;39.77
48035;BME280;33812;46.480;6.834;2023-12-20T15:36:47;94124.59;;;21.96;39.78
48035;BME280;33812;46.480;6.834;2023-12-20T15:40:50;94123.41;;;21.97;39.67
48035;BME280;33812;46.480;6.834;2023-12-20T15:44:52;94128.22;;;21.93;39.51
48035;BME280;33812;46.480;6.834;2023-12-20T15:48:54;94118.81;;;21.91;39.53
48035;BME280;33812;46.480;6.834;2023-12-20T15:52:56;94120.03;;;21.90;39.58
48035;BME280;33812;46.480;6.834;2023-12-20T15:57:00;94130.22;;;21.93;39.50
48035;BME280;33812;46.480;6.834;2023-12-20T16:01:01;94151.91;;;21.94;39.72
48035;BME280;33812;46.480;6.834;2023-12-20T16:05:03;94145.63;;;21.94;39.43
48035;BME280;33812;46.480;6.834;2023-12-20T16:09:05;94140.09;;;21.94;39.57
48035;BME280;33812;46.480;6.834;2023-12-20T16:13:09;94146.72;;;21.96;39.18
48035;BME280;33812;46.480;6.834;2023-12-20T16:17:10;94136.88;;;21.95;39.10
48035;BME280;33812;46.480;6.834;2023-12-20T16:21:12;94145.19;;;21.95;39.13
48035;BME280;33812;46.480;6.834;2023-12-20T16:25:14;94149.50;;;21.96;39.11
48035;BME280;33812;46.480;6.834;2023-12-20T16:29:18;94142.75;;;21.97;38.63
48035;BME280;33812;46.480;6.834;2023-12-20T16:33:19;94151.38;;;22.00;38.98
48035;BME280;33812;46.480;6.834;2023-12-20T16:37:22;94132.81;;;22.00;39.10
48035;BME280;33812;46.480;6.834;2023-12-20T16:41:34;94117.78;;;22.01;39.41
48035;BME280;33812;46.480;6.834;2023-12-20T16:45:47;94128.22;;;21.93;39.37
48035;BME280;33812;46.480;6.834;2023-12-20T16:49:49;94132.53;;;21.94;39.22
48035;BME280;33812;46.480;6.834;2023-12-20T16:53:51;94151.75;;;22.02;39.09
48035;BME280;33812;46.480;6.834;2023-12-20T16:57:53;94152.53;;;22.02;39.38
48035;BME280;33812;46.480;6.834;2023-12-20T17:01:56;94161.00;;;21.95;39.20
48035;BME280;33812;46.480;6.834;2023-12-20T17:05:58;94171.47;;;22.04;39.44
48035;BME280;33812;46.480;6.834;2023-12-20T17:10:03;94172.25;;;22.04;39.86
48035;BME280;33812;46.480;6.834;2023-12-20T17:14:05;94160.47;;;22.00;40.38
48035;BME280;33812;46.480;6.834;2023-12-20T17:18:10;94161.53;;;22.06;40.57
48035;BME280;33812;46.480;6.834;2023-12-20T17:22:12;94148.22;;;22.01;40.89
48035;BME280;33812;46.480;6.834;2023-12-20T17:26:14;94161.25;;;22.01;40.42
48035;BME280;33812;46.480;6.834;2023-12-20T17:30:16;94154.59;;;21.98;39.68
48035;BME280;33812;46.480;6.834;2023-12-20T17:34:19;94160.81;;;22.02;39.44
48035;BME280;33812;46.480;6.834;2023-12-20T17:38:21;94162.19;;;22.27;37.80
48035;BME280;33812;46.480;6.834;2023-12-20T17:42:23;94172.25;;;21.88;37.14
48035;BME280;33812;46.480;6.834;2023-12-20T17:46:26;94174.69;;;21.85;38.06
48035;BME280;33812;46.480;6.834;2023-12-20T17:50:30;94159.81;;;21.79;38.46
48035;BME280;33812;46.480;6.834;2023-12-20T17:54:32;94173.63;;;21.79;38.82
48035;BME280;33812;46.480;6.834;2023-12-20T17:58:34;94180.44;;;21.74;38.52
48035;BME280;33812;46.480;6.834;2023-12-20T18:02:35;94175.19;;;21.80;38.69
48035;BME280;33812;46.480;6.834;2023-12-20T18:06:38;94194.19;;;21.78;38.56
48035;BME280;33812;46.480;6.834;2023-12-20T18:10:40;94178.19;;;21.69;37.42
48035;BME280;33812;46.480;6.834;2023-12-20T18:14:42;94193.41;;;21.78;37.40
48035;BME280;33812;46.480;6.834;2023-12-20T18:18:46;94199.47;;;21.72;37.57
48035;BME280;33812;46.480;6.834;2023-12-20T18:22:49;94200.25;;;21.73;37.77
48035;BME280;33812;46.480;6.834;2023-12-20T18:26:51;94197.22;;;21.67;38.23
48035;BME280;33812;46.480;6.834;2023-12-20T18:30:53;94194.47;;;21.84;38.53
48035;BME280;33812;46.480;6.834;2023-12-20T18:34:55;94209.44;;;21.86;39.13
48035;BME280;33812;46.480;6.834;2023-12-20T18:38:58;94211.50;;;21.82;39.62
48035;BME280;33812;46.480;6.834;2023-12-20T18:43:00;94207.09;;;21.85;39.80
48035;BME280;33812;46.480;6.834;2023-12-20T18:47:02;94214.44;;;21.92;40.23
48035;BME280;33812;46.480;6.834;2023-12-20T18:51:04;94222.94;;;22.01;40.14
48035;BME280;33812;46.480;6.834;2023-12-20T18:55:08;94228.09;;;21.82;40.71
48035;BME280;33812;46.480;6.834;2023-12-20T18:59:10;94242.81;;;21.79;41.02
48035;BME280;33812;46.480;6.834;2023-12-20T19:03:13;94243.28;;;21.74;41.13
48035;BME280;33812;46.480;6.834;2023-12-20T19:07:15;94256.41;;;21.70;40.97
48035;BME280;33812;46.480;6.834;2023-12-20T19:11:18;94232.94;;;21.78;41.51
48035;BME280;33812;46.480;6.834;2023-12-20T19:15:20;94241.13;;;21.65;42.26
48035;BME280;33812;46.480;6.834;2023-12-20T19:19:22;94239.09;;;21.86;42.38
48035;BME280;33812;46.480;6.834;2023-12-20T19:23:23;94248.72;;;21.61;42.64
48035;BME280;33812;46.480;6.834;2023-12-20T19:27:27;94250.78;;;21.57;42.51
48035;BME280;33812;46.480;6.834;2023-12-20T19:31:29;94253.19;;;21.55;42.60
48035;BME280;33812;46.480;6.834;2023-12-20T19:35:31;94247.25;;;21.56;41.90
48035;BME280;33812;46.480;6.834;2023-12-20T19:39:33;94245.09;;;21.64;42.36
48035;BME280;33812;46.480;6.834;2023-12-20T19:43:37;94243.28;;;21.57;44.14
48035;BME280;33812;46.480;6.834;2023-12-20T19:47:39;94235.75;;;21.58;44.11
48035;BME280;33812;46.480;6.834;2023-12-20T19:51:42;94241.63;;;21.60;44.62
48035;BME280;33812;46.480;6.834;2023-12-20T19:55:44;94248.72;;;21.61;45.12
48035;BME280;33812;46.480;6.834;2023-12-20T19:59:47;94236.09;;;21.60;44.99
48035;BME280;33812;46.480;6.834;2023-12-20T20:03:49;94221.41;;;21.63;44.91
48035;BME280;33812;46.480;6.834;2023-12-20T20:07:51;94213.09;;;21.63;45.10
48035;BME280;33812;46.480;6.834;2023-12-20T20:11:52;94209.50;;;21.66;44.79
48035;BME280;33812;46.480;6.834;2023-12-20T20:15:55;94209.50;;;21.66;44.23
48035;BME280;33812;46.480;6.834;2023-12-20T20:19:57;94207.13;;;21.65;44.70
48035;BME280;33812;46.480;6.834;2023-12-20T20:24:00;94200.25;;;21.73;44.18
48035;BME280;33812;46.480;6.834;2023-12-20T20:28:01;94202.75;;;21.67;44.49
48035;BME280;33812;46.480;6.834;2023-12-20T20:32:05;94198.94;;;21.61;44.74
48035;BME280;33812;46.480;6.834;2023-12-20T20:36:07;94183.72;;;21.53;44.85
48035;BME280;33812;46.480;6.834;2023-12-20T20:40:10;94189.31;;;21.49;44.75
48035;BME280;33812;46.480;6.834;2023-12-20T20:44:14;94189.31;;;21.49;44.73
48035;BME280;33812;46.480;6.834;2023-12-20T20:48:17;94177.81;;;21.50;44.35
48035;BME280;33812;46.480;6.834;2023-12-20T20:52:19;94166.09;;;21.46;44.26
48035;BME280;33812;46.480;6.834;2023-12-20T20:56:21;94165.72;;;21.44;44.17
48035;BME280;33812;46.480;6.834;2023-12-20T21:00:23;94149.38;;;21.33;45.01
48035;BME280;33812;46.480;6.834;2023-12-20T21:04:27;94145.22;;;21.25;44.72
48035;BME280;33812;46.480;6.834;2023-12-20T21:08:28;94138.06;;;21.28;44.86
48035;BME280;33812;46.480;6.834;2023-12-20T21:12:30;94132.53;;;21.28;44.71
48035;BME280;33812;46.480;6.834;2023-12-20T21:16:32;94132.19;;;21.25;44.56
48035;BME280;33812;46.480;6.834;2023-12-20T21:20:45;94125.81;;;21.29;44.53
48035;BME280;33812;46.480;6.834;2023-12-20T21:24:52;94120.78;;;21.23;44.64
48035;BME280;33812;46.480;6.834;2023-12-20T21:28:54;94135.31;;;21.28;44.34
48035;BME280;33812;46.480;6.834;2023-12-20T21:33:12;94126.31;;;21.23;44.56
48035;BME280;33812;46.480;6.834;2023-12-20T21:37:16;94132.53;;;21.28;44.32
48035;BME280;33812;46.480;6.834;2023-12-20T21:41:28;94140.84;;;21.28;44.19
48035;BME280;33812;46.480;6.834;2023-12-20T21:45:43;94143.69;;;21.24;44.36
48035;BME280;33812;46.480;6.834;2023-12-20T21:49:52;94147.22;;;21.24;44.35